createdAt,value
2022-10-08T00:09:11.020Z,10.55
2022-10-08T05:41:07.235Z,10.48
2022-10-08T06:03:24.261Z,10.64
2022-10-08T06:06:26.908Z,10.67
2022-10-08T06:09:28.681Z,10.66
2022-10-08T06:12:30.296Z,10.60
2022-10-08T06:15:31.894Z,10.60
2022-10-08T06:18:38.807Z,10.60
2022-10-08T06:21:40.526Z,10.52
2022-10-08T06:24:42.127Z,10.43
2022-10-08T06:27:43.705Z,10.35
2022-10-08T06:30:45.286Z,10.29
2022-10-08T06:33:47.084Z,10.26
2022-10-08T06:36:48.679Z,10.23
2022-10-08T06:39:50.315Z,10.25
2022-10-08T06:42:53.051Z,10.27
2022-10-08T06:45:56.514Z,10.29
2022-10-08T06:49:00.366Z,10.31
2022-10-08T06:52:02.037Z,10.36
2022-10-08T06:55:03.915Z,10.37
2022-10-08T06:58:06.243Z,10.36
2022-10-08T07:01:13.634Z,10.33
2022-10-08T07:04:15.275Z,10.33
2022-10-08T07:07:17.050Z,10.33
2022-10-08T07:10:18.758Z,10.37
2022-10-08T07:13:20.993Z,10.39
2022-10-08T07:16:24.461Z,10.43
2022-10-08T07:19:26.587Z,10.42
2022-10-08T07:22:28.342Z,10.48
2022-10-08T07:25:30.094Z,10.51
2022-10-08T07:28:35.047Z,10.53
2022-10-08T07:31:37.555Z,10.61
2022-10-08T07:34:39.209Z,10.69
2022-10-08T07:37:43.840Z,10.79
2022-10-08T07:40:46.983Z,10.83
2022-10-08T07:43:53.177Z,10.88
2022-10-08T07:46:54.909Z,10.95
2022-10-08T07:49:56.470Z,11.00
2022-10-08T07:52:58.067Z,11.05
2022-10-08T07:55:59.652Z,11.05
2022-10-08T07:59:02.675Z,11.15
2022-10-08T08:02:04.398Z,11.22
2022-10-08T08:05:06.521Z,11.25
2022-10-08T08:08:08.091Z,11.28
2022-10-08T08:11:12.393Z,11.32
2022-10-08T08:14:14.223Z,11.30
2022-10-08T08:17:15.840Z,11.30
2022-10-08T08:20:17.427Z,11.29
2022-10-08T08:23:19.038Z,11.28
2022-10-08T08:26:23.307Z,11.29
2022-10-08T08:29:24.877Z,11.34
2022-10-08T08:32:28.642Z,11.36
2022-10-08T08:35:30.381Z,11.38
2022-10-08T08:38:35.648Z,11.38
2022-10-08T08:41:52.685Z,11.44
2022-10-08T08:45:00.373Z,11.51
2022-10-08T08:48:12.860Z,11.53
2022-10-08T08:51:16.179Z,11.60
2022-10-08T08:54:17.894Z,11.67
2022-10-08T08:57:38.623Z,11.74
2022-10-08T09:00:44.953Z,11.71
2022-10-08T09:03:50.844Z,11.67
2022-10-08T09:06:53.700Z,11.68
2022-10-08T09:09:58.845Z,11.72
2022-10-08T09:13:02.310Z,11.80
2022-10-08T09:16:04.035Z,11.82
2022-10-08T09:19:05.647Z,12.00
2022-10-08T09:22:24.377Z,12.24
2022-10-08T09:25:32.822Z,12.45
2022-10-08T09:28:41.711Z,12.56
2022-10-08T09:31:48.000Z,12.52
2022-10-08T09:34:49.679Z,12.48
2022-10-08T10:00:28.758Z,12.86
2022-10-08T10:03:31.726Z,12.85
2022-10-08T10:06:40.348Z,12.89
2022-10-08T10:09:46.853Z,12.86
2022-10-08T10:12:54.469Z,12.93
2022-10-08T10:16:04.986Z,12.99
2022-10-08T10:19:14.405Z,13.06
2022-10-08T10:22:23.942Z,13.20
2022-10-08T10:25:42.224Z,13.14
2022-10-08T10:29:02.869Z,13.08
2022-10-08T10:32:14.621Z,13.02
2022-10-08T10:35:27.556Z,13.01
2022-10-08T10:38:31.628Z,13.08
2022-10-08T11:21:56.404Z,13.76
2022-10-08T11:26:23.211Z,13.84
2022-10-08T11:45:55.385Z,13.76
2022-10-08T13:32:42.975Z,11.61
2022-10-08T14:02:25.674Z,12.96
2022-10-08T14:10:32.553Z,12.47
2022-10-08T14:14:12.264Z,12.39
2022-10-08T14:21:35.105Z,12.12
2022-10-08T14:25:10.836Z,12.18
2022-10-08T14:31:47.193Z,12.15
2022-10-08T14:34:50.295Z,12.06
2022-10-08T18:38:37.891Z,9.79
